Terminal Aerodrome Forecast
Issued by NWS

Home | Current Version | Previous Version | Text Only | Print | Product List | Glossary Off
Versions: 1 2 3 4 5 6 7 8 9 10 11 12 13 14 15

000
FTUS43 KMPX 271100
TAFAXN
TAF
KAXN 271120Z 2712/2812 06002KT P6SM BKN100 BKN250
     FM271400 17005KT P6SM SCT070 SCT250
     FM280900 12004KT P6SM OVC150=

USA.gov is the U.S. government's official web portal to all federal, state and local government web resources and services.